createdAt,value
2022-08-17T00:01:27.724Z,11.95
2022-08-17T00:03:55.044Z,13.35
2022-08-17T00:06:25.526Z,15.02
2022-08-17T00:08:55.287Z,11.65
2022-08-17T00:11:26.191Z,11.50
2022-08-17T00:13:58.581Z,13.10
2022-08-17T00:16:56.217Z,14.02
2022-08-17T00:19:23.128Z,11.57
2022-08-17T00:22:32.711Z,14.35
2022-08-17T00:24:38.839Z,13.68
2022-08-17T00:27:05.640Z,10.00
2022-08-17T00:29:32.281Z,16.13
2022-08-17T00:31:58.913Z,14.50
2022-08-17T00:34:25.614Z,13.82
2022-08-17T00:36:54.635Z,11.80
2022-08-17T00:39:21.304Z,15.52
2022-08-17T00:41:47.953Z,15.48
2022-08-17T00:44:15.660Z,12.85
2022-08-17T00:46:43.939Z,19.90
2022-08-17T00:49:12.724Z,12.98
2022-08-17T00:51:50.245Z,13.40
2022-08-17T00:54:44.959Z,12.32
2022-08-17T00:57:18.441Z,11.43
2022-08-17T01:02:40.391Z,19.38
2022-08-17T01:05:15.140Z,19.27
2022-08-17T01:07:43.240Z,15.68
2022-08-17T01:10:58.228Z,11.02
2022-08-17T01:13:02.593Z,12.73
2022-08-17T01:15:31.754Z,10.90
2022-08-17T01:17:58.496Z,12.05
2022-08-17T01:20:25.190Z,13.48
2022-08-17T01:22:52.582Z,13.93
2022-08-17T01:25:20.669Z,14.30
2022-08-17T01:27:48.708Z,13.00
2022-08-17T01:30:58.596Z,17.42
2022-08-17T01:33:04.386Z,12.73
2022-08-17T01:35:31.048Z,14.48
2022-08-17T01:37:57.652Z,12.77
2022-08-17T01:40:35.220Z,12.05
2022-08-17T01:43:09.036Z,12.80
2022-08-17T01:45:42.771Z,11.27
2022-08-17T01:48:09.728Z,10.77
2022-08-17T01:50:38.036Z,12.20
2022-08-17T01:53:09.229Z,17.77
2022-08-17T01:55:45.767Z,12.95
2022-08-17T01:58:13.108Z,16.73
2022-08-17T02:00:59.370Z,14.05
2022-08-17T02:03:28.661Z,12.02
2022-08-17T02:05:55.661Z,15.65
2022-08-17T02:08:37.274Z,14.35
2022-08-17T02:11:14.645Z,11.73
2022-08-17T02:13:42.728Z,15.75
2022-08-17T02:16:09.390Z,12.23
2022-08-17T02:18:36.453Z,14.25
2022-08-17T02:21:04.293Z,12.88
2022-08-17T02:23:34.295Z,15.55
2022-08-17T02:26:01.402Z,10.07
2022-08-17T02:28:28.886Z,12.35
2022-08-17T02:31:00.937Z,11.35
2022-08-17T02:33:41.719Z,12.63
2022-08-17T02:36:09.424Z,10.55
2022-08-17T02:38:37.305Z,12.10
2022-08-17T02:41:04.646Z,13.10
2022-08-17T02:43:31.780Z,12.50
2022-08-17T02:45:58.457Z,12.88
2022-08-17T02:48:31.015Z,11.30
2022-08-17T02:50:59.655Z,17.35
2022-08-17T02:53:26.381Z,12.45
2022-08-17T02:55:53.718Z,12.88
2022-08-17T02:58:34.613Z,11.50
2022-08-17T03:01:06.425Z,13.73
2022-08-17T03:03:34.093Z,10.38
2022-08-17T03:06:01.231Z,12.18
2022-08-17T03:08:28.290Z,9.38
2022-08-17T03:10:55.190Z,11.45
2022-08-17T03:13:22.309Z,11.00
2022-08-17T03:15:49.422Z,14.48
2022-08-17T03:18:24.881Z,11.93
2022-08-17T03:20:58.204Z,12.70
2022-08-17T03:23:25.838Z,9.75
2022-08-17T03:25:54.494Z,11.07
2022-08-17T03:28:22.821Z,14.63
2022-08-17T03:30:51.379Z,14.43
2022-08-17T03:33:18.919Z,14.07
2022-08-17T03:35:46.245Z,13.93
2022-08-17T03:38:15.044Z,16.10
2022-08-17T03:40:56.940Z,12.88
2022-08-17T03:43:29.344Z,10.98
2022-08-17T03:46:34.178Z,13.52
2022-08-17T03:49:25.095Z,10.52
2022-08-17T03:52:10.665Z,13.10
2022-08-17T03:54:55.793Z,12.38
2022-08-17T03:57:22.895Z,14.00
2022-08-17T03:59:49.926Z,15.73
2022-08-17T04:02:30.264Z,12.88
2022-08-17T04:04:57.987Z,10.60
2022-08-17T04:07:27.638Z,14.65
2022-08-17T04:09:54.569Z,14.02
2022-08-17T04:12:23.215Z,14.40
2022-08-17T04:14:52.255Z,11.35
2022-08-17T04:17:26.140Z,13.43
2022-08-17T04:19:53.913Z,11.95
2022-08-17T04:22:30.508Z,13.23
2022-08-17T04:25:02.809Z,15.63
2022-08-17T04:27:29.440Z,14.85
2022-08-17T04:29:56.325Z,13.75
2022-08-17T04:33:00.407Z,10.13
2022-08-17T04:35:10.075Z,11.55
2022-08-17T04:37:36.805Z,9.63
2022-08-17T04:40:30.489Z,12.52
2022-08-17T04:43:02.213Z,11.48
2022-08-17T04:45:32.228Z,16.58
2022-08-17T04:48:00.022Z,13.80
2022-08-17T04:50:27.560Z,16.52
2022-08-17T04:52:54.421Z,13.65
2022-08-17T04:55:21.392Z,12.55
2022-08-17T04:57:48.028Z,13.13
2022-08-17T05:00:14.981Z,14.90
2022-08-17T05:02:50.999Z,11.43
2022-08-17T05:05:20.857Z,14.70
2022-08-17T05:07:47.938Z,11.48
2022-08-17T05:10:14.600Z,12.23
2022-08-17T05:12:41.212Z,9.27
2022-08-17T05:15:11.906Z,9.57
2022-08-17T05:17:38.561Z,8.60
2022-08-17T05:20:05.635Z,9.60
2022-08-17T05:22:32.268Z,15.02
2022-08-17T05:24:58.899Z,10.35
2022-08-17T05:27:30.807Z,13.45
2022-08-17T05:30:02.202Z,13.13
2022-08-17T05:32:39.626Z,12.02
2022-08-17T05:35:07.465Z,11.23
2022-08-17T05:37:34.135Z,11.30
2022-08-17T05:40:00.830Z,11.80
2022-08-17T05:42:27.537Z,8.30
2022-08-17T05:44:58.017Z,11.30
2022-08-17T05:47:26.338Z,11.27
2022-08-17T05:49:53.884Z,8.18
2022-08-17T05:52:20.525Z,8.70
2022-08-17T05:55:08.576Z,13.15
2022-08-17T05:57:52.861Z,12.00
2022-08-17T06:00:30.253Z,11.38
2022-08-17T06:03:25.274Z,9.60
2022-08-17T06:06:01.499Z,8.80
2022-08-17T06:08:43.535Z,11.65
2022-08-17T06:11:27.276Z,8.43
2022-08-17T06:14:04.108Z,8.48
2022-08-17T06:16:38.721Z,8.63
2022-08-17T06:19:17.259Z,9.07
2022-08-17T06:21:49.113Z,11.55
2022-08-17T06:24:28.383Z,8.80
2022-08-17T06:26:59.418Z,9.65
2022-08-17T06:29:46.279Z,13.15
2022-08-17T06:32:13.559Z,9.57
2022-08-17T06:34:43.715Z,8.63
2022-08-17T06:37:30.355Z,13.48
2022-08-17T06:40:45.596Z,9.45
2022-08-17T06:43:21.176Z,9.00
2022-08-17T06:46:02.330Z,8.50
2022-08-17T06:49:07.511Z,9.73
2022-08-17T06:51:49.185Z,7.77
2022-08-17T06:54:23.506Z,8.07
2022-08-17T06:57:06.449Z,8.88
2022-08-17T06:59:56.160Z,8.43
2022-08-17T07:03:13.009Z,10.70
2022-08-17T07:05:43.989Z,8.88
2022-08-17T07:08:13.274Z,9.65
2022-08-17T07:10:47.720Z,7.75
2022-08-17T07:13:29.396Z,7.28
2022-08-17T07:16:06.828Z,9.02
2022-08-17T07:18:34.251Z,11.40
2022-08-17T07:21:26.907Z,7.53
2022-08-17T07:24:29.213Z,9.20
2022-08-17T07:27:11.252Z,9.40
2022-08-17T07:29:40.941Z,6.78
2022-08-17T07:32:09.982Z,8.43
2022-08-17T07:35:11.143Z,10.10
2022-08-17T07:37:40.934Z,7.35
2022-08-17T07:40:34.091Z,9.00
2022-08-17T07:43:39.268Z,10.55
2022-08-17T07:46:40.852Z,9.20
2022-08-17T07:49:10.221Z,8.38
2022-08-17T07:51:57.231Z,13.23
2022-08-17T07:54:35.694Z,12.45
2022-08-17T07:57:03.425Z,9.88
2022-08-17T07:59:34.398Z,13.18
2022-08-17T08:02:31.792Z,10.38
2022-08-17T08:05:12.942Z,8.43
2022-08-17T08:07:42.644Z,7.70
2022-08-17T08:10:12.367Z,9.07
2022-08-17T08:12:42.457Z,8.32
2022-08-17T08:15:17.768Z,7.85
2022-08-17T08:18:03.076Z,8.93
2022-08-17T08:20:52.349Z,7.70
2022-08-17T08:23:39.300Z,10.18
2022-08-17T08:26:27.650Z,13.52
2022-08-17T08:29:31.127Z,9.60
2022-08-17T08:32:34.942Z,9.40
2022-08-17T08:35:13.674Z,8.27
2022-08-17T08:37:53.273Z,7.88
2022-08-17T08:40:29.888Z,7.70
2022-08-17T08:43:27.509Z,9.05
2022-08-17T08:46:09.378Z,11.18
2022-08-17T08:49:02.659Z,7.05
2022-08-17T08:51:43.022Z,6.65
2022-08-17T08:54:09.781Z,6.93
2022-08-17T08:57:19.175Z,6.82
2022-08-17T08:59:41.790Z,7.28
2022-08-17T09:02:34.615Z,8.27
2022-08-17T09:05:14.269Z,7.28
2022-08-17T09:08:07.305Z,7.63
2022-08-17T09:10:45.831Z,7.85
2022-08-17T09:13:15.413Z,9.65
2022-08-17T09:15:47.997Z,8.25
2022-08-17T09:19:02.159Z,8.38
2022-08-17T09:21:15.350Z,6.65
2022-08-17T09:24:12.782Z,7.13
2022-08-17T09:27:02.457Z,6.80
2022-08-17T09:29:35.206Z,8.15
2022-08-17T09:32:17.546Z,6.93
2022-08-17T09:34:52.649Z,8.48
2022-08-17T09:37:23.208Z,6.53
2022-08-17T09:40:09.703Z,7.45
2022-08-17T09:42:50.740Z,7.50
2022-08-17T09:45:24.583Z,10.13
2022-08-17T09:48:18.382Z,8.40
2022-08-17T09:51:05.853Z,7.50
2022-08-17T09:53:36.030Z,6.63
2022-08-17T09:56:05.605Z,8.02
2022-08-17T09:58:51.272Z,6.93
2022-08-17T10:01:37.433Z,8.48
2022-08-17T10:04:29.453Z,6.05
2022-08-17T10:07:17.870Z,6.93
2022-08-17T10:10:14.408Z,8.82
2022-08-17T10:13:20.137Z,6.28
2022-08-17T10:15:56.837Z,8.93
2022-08-17T10:18:41.144Z,8.95
2022-08-17T10:21:36.348Z,7.22
2022-08-17T10:24:21.364Z,8.18
2022-08-17T10:26:56.460Z,9.55
2022-08-17T10:29:48.876Z,6.47
2022-08-17T10:32:40.862Z,7.00
2022-08-17T10:35:31.157Z,7.68
2022-08-17T10:38:31.904Z,6.53
2022-08-17T10:41:27.253Z,8.20
2022-08-17T10:44:41.267Z,8.32
2022-08-17T10:47:11.357Z,6.47
2022-08-17T10:50:03.578Z,6.75
2022-08-17T10:52:30.600Z,6.55
2022-08-17T10:55:06.042Z,5.90
2022-08-17T10:57:37.556Z,8.85
2022-08-17T11:00:19.045Z,6.03
2022-08-17T11:02:54.570Z,12.20
2022-08-17T11:05:43.770Z,8.60
2022-08-17T11:08:57.539Z,7.30
2022-08-17T11:11:49.969Z,9.83
2022-08-17T11:14:17.329Z,6.53
2022-08-17T11:17:04.768Z,7.13
2022-08-17T11:19:40.633Z,8.35
2022-08-17T11:22:44.136Z,12.65
2022-08-17T11:25:17.965Z,7.20
2022-08-17T11:27:53.901Z,6.43
2022-08-17T11:30:47.097Z,7.88
2022-08-17T11:33:30.518Z,7.07
2022-08-17T11:36:33.332Z,9.75
2022-08-17T11:39:18.377Z,8.90
2022-08-17T11:41:58.187Z,8.13
2022-08-17T11:44:43.512Z,7.30
2022-08-17T11:47:42.456Z,8.05
2022-08-17T11:50:36.733Z,9.07
2022-08-17T11:53:04.132Z,9.00
2022-08-17T11:55:37.496Z,6.47
2022-08-17T11:58:37.453Z,6.20
2022-08-17T12:01:29.320Z,6.88
2022-08-17T12:04:25.944Z,10.27
2022-08-17T12:06:59.799Z,7.30
2022-08-17T12:09:32.251Z,6.78
2022-08-17T12:12:13.288Z,7.40
2022-08-17T12:17:40.939Z,9.65
2022-08-17T12:20:19.547Z,10.75
2022-08-17T12:23:01.161Z,6.75
2022-08-17T12:25:39.099Z,6.95
2022-08-17T12:28:37.912Z,8.13
2022-08-17T12:31:15.638Z,8.07
2022-08-17T12:33:47.515Z,7.80
2022-08-17T12:36:16.975Z,8.23
2022-08-17T12:39:14.330Z,7.80
2022-08-17T12:41:50.911Z,7.72
2022-08-17T12:44:19.258Z,7.10
2022-08-17T12:46:45.933Z,7.07
2022-08-17T12:49:35.529Z,8.30
2022-08-17T12:52:11.327Z,7.53
2022-08-17T12:54:46.869Z,6.97
2022-08-17T12:57:19.185Z,7.93
2022-08-17T12:59:50.378Z,8.23
2022-08-17T13:02:24.728Z,7.63
2022-08-17T13:04:51.495Z,6.97
2022-08-17T13:07:42.508Z,7.85
2022-08-17T13:10:18.411Z,6.53
2022-08-17T13:12:45.385Z,6.85
2022-08-17T13:15:23.979Z,6.97
2022-08-17T13:18:00.173Z,7.65
2022-08-17T13:20:26.888Z,6.65
2022-08-17T13:22:59.484Z,6.80
2022-08-17T13:25:27.793Z,7.93
2022-08-17T13:27:55.877Z,7.53
2022-08-17T13:30:29.288Z,9.68
2022-08-17T13:32:57.316Z,6.75
2022-08-17T13:35:44.147Z,9.57
2022-08-17T13:38:35.911Z,6.60
2022-08-17T13:41:04.136Z,6.40
2022-08-17T13:43:41.023Z,7.47
2022-08-17T13:46:20.404Z,7.28
2022-08-17T13:48:57.948Z,5.80
2022-08-17T13:51:28.492Z,6.22
2022-08-17T13:53:59.287Z,7.18
2022-08-17T13:56:38.608Z,6.60
2022-08-17T13:59:12.741Z,6.35
2022-08-17T14:01:52.556Z,7.50
2022-08-17T14:04:28.024Z,6.05
2022-08-17T14:07:13.032Z,7.20
2022-08-17T14:09:57.716Z,7.55
2022-08-17T14:12:26.844Z,8.93
2022-08-17T14:14:55.222Z,6.07
2022-08-17T14:17:23.237Z,6.50
2022-08-17T14:19:51.069Z,6.07
2022-08-17T14:22:23.772Z,7.50
2022-08-17T14:24:51.379Z,6.60
2022-08-17T14:27:19.467Z,8.23
2022-08-17T14:29:46.794Z,7.70
2022-08-17T14:32:37.067Z,6.20
2022-08-17T14:35:05.788Z,5.80
2022-08-17T14:37:34.467Z,6.72
2022-08-17T14:40:05.181Z,5.93
2022-08-17T14:42:33.849Z,6.13
2022-08-17T14:45:06.233Z,6.47
2022-08-17T14:47:52.888Z,5.80
2022-08-17T14:50:22.717Z,6.78
2022-08-17T14:52:50.555Z,6.40
2022-08-17T14:55:18.379Z,7.03
2022-08-17T14:57:45.655Z,6.05
2022-08-17T15:00:12.969Z,8.55
2022-08-17T15:02:54.953Z,9.75
2022-08-17T15:05:24.577Z,6.65
2022-08-17T15:07:53.398Z,6.55
2022-08-17T15:10:20.907Z,8.20
2022-08-17T15:12:48.181Z,6.75
2022-08-17T15:15:17.347Z,5.45
2022-08-17T15:17:54.624Z,5.30
2022-08-17T15:20:27.608Z,6.28
2022-08-17T15:25:25.870Z,8.98
2022-08-17T15:27:52.933Z,11.40
2022-08-17T15:30:20.435Z,6.85
2022-08-17T15:32:51.339Z,6.25
2022-08-17T15:35:27.141Z,7.25
2022-08-17T15:37:54.442Z,6.20
2022-08-17T15:40:21.087Z,6.65
2022-08-17T15:42:47.750Z,9.88
2022-08-17T15:45:16.679Z,6.43
2022-08-17T15:47:43.361Z,10.90
2022-08-17T15:50:10.760Z,6.18
2022-08-17T15:52:40.355Z,7.97
2022-08-17T15:55:11.484Z,6.55
2022-08-17T15:57:38.803Z,8.77
2022-08-17T16:00:08.601Z,7.38
2022-08-17T16:03:44.481Z,5.78
2022-08-17T16:05:25.341Z,7.20
2022-08-17T16:07:53.261Z,6.55
2022-08-17T16:10:21.141Z,7.28
2022-08-17T16:12:49.688Z,10.35
2022-08-17T16:15:17.292Z,7.75
2022-08-17T16:17:43.996Z,9.50
2022-08-17T16:20:20.392Z,6.68
2022-08-17T16:22:49.815Z,8.73
2022-08-17T16:25:23.191Z,5.10
2022-08-17T16:28:09.829Z,6.27
2022-08-17T16:30:37.504Z,9.88
2022-08-17T16:33:05.050Z,5.55
2022-08-17T16:35:31.896Z,9.70
2022-08-17T16:37:58.839Z,6.10
2022-08-17T16:40:28.665Z,5.68
2022-08-17T16:42:56.198Z,5.43
2022-08-17T16:45:36.643Z,5.85
2022-08-17T16:48:04.361Z,8.32
2022-08-17T16:50:31.944Z,10.55
2022-08-17T16:53:17.383Z,5.70
2022-08-17T16:55:45.143Z,5.82
2022-08-17T16:58:12.024Z,6.10
2022-08-17T17:00:39.528Z,7.07
2022-08-17T17:03:19.432Z,5.30
2022-08-17T17:05:58.765Z,7.25
2022-08-17T17:08:34.816Z,8.93
2022-08-17T17:11:14.841Z,9.45
2022-08-17T17:13:54.175Z,13.10
2022-08-17T17:16:31.327Z,15.07
2022-08-17T17:19:34.340Z,9.18
2022-08-17T17:24:40.946Z,13.88
2022-08-17T17:27:34.814Z,11.57
2022-08-17T17:32:44.288Z,13.40
2022-08-17T17:35:24.248Z,16.05
2022-08-17T17:37:53.204Z,15.55
2022-08-17T17:40:37.012Z,16.52
2022-08-17T17:46:28.033Z,10.10
2022-08-17T17:48:55.109Z,11.38
2022-08-17T17:52:06.860Z,8.55
2022-08-17T17:54:46.865Z,8.75
2022-08-17T17:57:34.817Z,8.82
2022-08-17T18:00:06.552Z,13.15
2022-08-17T18:02:51.728Z,9.98
2022-08-17T18:05:37.377Z,10.85
2022-08-17T18:08:32.388Z,11.30
2022-08-17T18:11:24.612Z,10.65
2022-08-17T18:13:57.399Z,10.07
2022-08-17T18:16:27.430Z,8.95
2022-08-17T18:18:57.630Z,6.68
2022-08-17T18:21:35.028Z,6.28
2022-08-17T18:24:04.261Z,8.38
2022-08-17T18:26:50.082Z,6.95
2022-08-17T18:29:37.577Z,9.93
2022-08-17T18:32:23.838Z,13.48
2022-08-17T18:34:57.283Z,6.90
2022-08-17T18:40:17.163Z,7.45
2022-08-17T18:43:00.892Z,7.25
2022-08-17T18:45:49.129Z,7.30
2022-08-17T18:48:49.784Z,10.40
2022-08-17T18:51:46.156Z,11.85
2022-08-17T18:54:20.127Z,12.57
2022-08-17T18:56:53.683Z,8.57
2022-08-17T18:59:28.280Z,7.13
2022-08-17T19:02:45.193Z,7.45
2022-08-17T19:05:31.058Z,7.13
2022-08-17T19:08:27.404Z,6.82
2022-08-17T19:10:59.886Z,6.40
2022-08-17T19:13:40.759Z,6.43
2022-08-17T19:16:15.387Z,7.18
2022-08-17T19:18:53.744Z,15.95
2022-08-17T19:21:43.011Z,8.35
2022-08-17T19:24:14.262Z,7.78
2022-08-17T19:26:53.608Z,11.30
2022-08-17T19:29:29.999Z,5.63
2022-08-17T19:31:58.771Z,8.48
2022-08-17T19:34:33.495Z,8.57
2022-08-17T19:37:26.518Z,10.25
2022-08-17T19:39:53.106Z,8.02
2022-08-17T19:42:26.157Z,9.85
2022-08-17T19:45:03.000Z,7.47
2022-08-17T19:47:53.336Z,6.30
2022-08-17T19:50:30.213Z,8.63
2022-08-17T19:53:07.790Z,7.22
2022-08-17T19:56:17.475Z,7.00
2022-08-17T19:58:49.917Z,7.47
2022-08-17T20:01:34.966Z,6.00
2022-08-17T20:04:19.619Z,7.18
2022-08-17T20:06:49.583Z,6.18
2022-08-17T20:09:33.402Z,11.60
2022-08-17T20:12:16.488Z,8.77
2022-08-17T20:15:29.606Z,10.82
2022-08-17T20:18:00.300Z,9.68
2022-08-17T20:20:48.545Z,11.70
2022-08-17T20:23:40.476Z,9.55
2022-08-17T20:26:20.677Z,7.38
2022-08-17T20:29:07.611Z,8.25
2022-08-17T20:31:49.772Z,6.72
2022-08-17T20:34:30.865Z,8.93
2022-08-17T20:37:10.991Z,8.57
2022-08-17T20:39:42.487Z,7.07
2022-08-17T20:42:15.069Z,10.43
2022-08-17T20:44:43.232Z,7.53
2022-08-17T20:47:17.366Z,8.23
2022-08-17T20:49:47.176Z,12.32
2022-08-17T20:52:35.368Z,7.22
2022-08-17T20:55:04.422Z,6.82
2022-08-17T20:57:31.361Z,8.23
2022-08-17T21:00:14.975Z,9.70
2022-08-17T21:02:47.388Z,5.95
2022-08-17T21:05:59.802Z,7.72
2022-08-17T21:08:30.083Z,6.70
2022-08-17T21:10:58.443Z,8.75
2022-08-17T21:13:40.383Z,15.85
2022-08-17T21:16:09.900Z,12.63
2022-08-17T21:18:59.228Z,8.02
2022-08-17T21:21:26.020Z,9.00
2022-08-17T21:24:22.512Z,10.43
2022-08-17T21:27:14.040Z,8.10
2022-08-17T21:30:06.557Z,8.30
2022-08-17T21:32:40.435Z,8.20
2022-08-17T21:35:11.444Z,9.63
2022-08-17T21:41:54.641Z,6.95
2022-08-17T21:44:48.583Z,6.90
2022-08-17T21:47:28.583Z,6.47
2022-08-17T21:50:12.839Z,5.90
2022-08-17T21:52:40.596Z,7.60
2022-08-17T21:55:08.133Z,7.22
2022-08-17T21:57:41.866Z,9.50
2022-08-17T22:00:32.191Z,6.68
2022-08-17T22:03:01.912Z,6.38
2022-08-17T22:05:40.009Z,9.77
2022-08-17T22:08:19.143Z,5.32
2022-08-17T22:10:50.476Z,10.20
2022-08-17T22:13:17.709Z,6.50
2022-08-17T22:15:47.205Z,10.07
2022-08-17T22:18:21.674Z,7.80
2022-08-17T22:21:01.725Z,6.60
2022-08-17T22:23:53.880Z,7.88
2022-08-17T22:26:24.220Z,9.38
2022-08-17T22:28:54.374Z,6.63
2022-08-17T22:31:29.096Z,8.95
2022-08-17T22:34:01.485Z,8.18
2022-08-17T22:36:30.943Z,7.05
2022-08-17T22:39:07.504Z,7.93
2022-08-17T22:41:54.381Z,7.55
2022-08-17T22:44:27.796Z,7.18
2022-08-17T22:46:56.568Z,6.85
2022-08-17T22:49:38.605Z,9.13
2022-08-17T22:52:29.200Z,10.18
2022-08-17T22:55:35.014Z,6.70
2022-08-17T22:58:28.164Z,11.13
2022-08-17T23:00:55.811Z,6.57
2022-08-17T23:03:27.234Z,7.40
2022-08-17T23:06:06.853Z,7.40
2022-08-17T23:08:36.464Z,7.82
2022-08-17T23:11:05.391Z,6.60
2022-08-17T23:13:33.528Z,6.63
2022-08-17T23:16:00.328Z,9.75
2022-08-17T23:18:27.395Z,7.28
2022-08-17T23:20:54.299Z,9.90
2022-08-17T23:23:23.882Z,8.10
2022-08-17T23:25:50.995Z,10.32
2022-08-17T23:28:17.656Z,10.68
2022-08-17T23:30:45.106Z,13.02
2022-08-17T23:33:30.046Z,6.45
2022-08-17T23:36:00.225Z,8.45
2022-08-17T23:38:27.877Z,7.95
2022-08-17T23:41:00.065Z,7.95
2022-08-17T23:43:28.810Z,9.82
2022-08-17T23:45:57.529Z,9.63
2022-08-17T23:48:34.913Z,12.60
2022-08-17T23:51:17.353Z,11.43
2022-08-17T23:53:50.124Z,24.67
2022-08-17T23:56:23.295Z,12.30
2022-08-17T23:58:51.412Z,21.75
